Quiterianopolis, Brazil
Current Conditions -  °F | °C
As of 4:00 PM on Tuesday 21 Oct 2014 (Local Time) from SBJU Reporting Station
Few Clouds Few Clouds  
Wind Chill: 97°   Ceiling: Unl
Heat Index: 98°   Visibility: 6mi
Dew Point: 63°   Wind: 0mph
Humidity: 32%   Direction: NA
Pressure: 29.88"   Gusts: NA
Location:  5.84°S, 40.7°W
Report Text: SBJU 211900Z 00000KT 9999 FEW024 36/17 Q1012
Loading
Personal Weather Stations






























Interactive Weather Map
Tropical Storm Tracking
New forecast layout! Learn more

10-Day Weather Forecast

Advertisements
Track Severe Weather on mobile